Time;durP1;ratioP1;P1;durP2;ratioP2;P2;SDS_P1;SDS_P2;PMS_P1;PMS_P2;Temp;Humidity;BMP_temperature;BMP_pressure;BME280_temperature;BME280_humidity;BME280_pressure;Samples;Min_cycle;Max_cycle;Signal;HPM_P1;HPM_P2
2022/09/27 00:00:25;;;;;;;23.30;22.10;;;;;;;14.27;61.85;99650.09;5035503;28;20053;-73
2022/09/27 00:02:51;;;;;;;21.45;20.35;;;;;;;14.27;61.81;99647.38;5035593;28;20034;-73
2022/09/27 00:05:16;;;;;;;23.35;22.15;;;;;;;14.26;61.92;99654.72;5033986;28;20453;-74
2022/09/27 00:07:43;;;;;;;24.65;23.45;;;;;;;14.26;61.74;99651.16;5035386;28;20128;-73
2022/09/27 00:10:09;;;;;;;24.60;23.20;;;;;;;14.26;61.89;99662.03;5035817;28;20040;-73
2022/09/27 00:12:35;;;;;;;23.00;21.85;;;;;;;14.23;61.76;99658.00;5067815;28;20044;-73
2022/09/27 00:15:01;;;;;;;25.13;23.67;;;;;;;14.24;61.81;99662.34;5035502;28;20030;-73
2022/09/27 00:17:27;;;;;;;22.83;21.73;;;;;;;14.23;62.02;99659.91;5034546;28;20087;-74
2022/09/27 00:19:55;;;;;;;23.90;22.60;;;;;;;14.23;61.76;99658.00;5035353;28;20140;-73
2022/09/27 00:22:21;;;;;;;22.15;21.05;;;;;;;14.22;61.75;99666.47;5033847;28;20037;-73
2022/09/27 00:24:46;;;;;;;23.80;22.33;;;;;;;14.21;61.90;99671.09;5050929;28;20036;-74
2022/09/27 00:27:12;;;;;;;25.05;23.35;;;;;;;14.22;61.77;99680.03;5034852;28;20037;-73
2022/09/27 00:29:37;;;;;;;24.25;23.05;;;;;;;14.21;62.04;99681.94;5050465;28;20064;-74
2022/09/27 00:32:02;;;;;;;24.23;22.85;;;;;;;14.20;61.96;99677.59;5033752;28;20451;-73
2022/09/27 00:34:28;;;;;;;24.70;23.50;;;;;;;14.18;61.91;99685.22;5034313;28;20046;-73
2022/09/27 00:36:54;;;;;;;23.80;22.23;;;;;;;14.19;61.87;99686.84;5034013;28;20047;-73
2022/09/27 00:39:20;;;;;;;23.70;22.40;;;;;;;14.18;61.95;99690.66;5033748;28;20041;-74
2022/09/27 00:41:45;;;;;;;23.60;22.40;;;;;;;14.19;61.84;99669.75;5035392;28;20491;-73
2022/09/27 00:44:32;;;;;;;25.08;23.58;;;;;;;14.17;61.67;99664.63;5034105;28;20060;-73
2022/09/27 00:47:05;;;;;;;22.70;21.50;;;;;;;14.16;61.75;99660.28;5035509;28;20029;-73
2022/09/27 00:49:37;;;;;;;23.17;21.98;;;;;;;14.15;61.84;99661.38;5035573;28;20029;-73
2022/09/27 00:52:26;;;;;;;24.40;22.70;;;;;;;14.14;62.04;99662.50;5035570;28;20064;-75
2022/09/27 00:54:58;;;;;;;23.27;22.10;;;;;;;14.14;61.98;99665.19;5034049;28;20034;-74
2022/09/27 00:57:24;;;;;;;23.27;21.70;;;;;;;14.13;61.84;99671.72;5035026;28;20033;-74
2022/09/27 00:59:57;;;;;;;24.35;22.77;;;;;;;14.13;61.79;99663.56;5033406;28;20033;-73
2022/09/27 01:02:22;;;;;;;23.60;22.40;;;;;;;14.12;61.69;99661.97;5033871;28;20219;-73
2022/09/27 01:04:48;;;;;;;23.52;21.95;;;;;;;14.10;61.66;99675.03;5033179;28;20033;-74
2022/09/27 01:07:14;;;;;;;24.50;23.20;;;;;;;14.10;61.83;99680.44;5034627;28;20092;-73
2022/09/27 01:09:39;;;;;;;23.65;22.40;;;;;;;14.09;61.77;99678.06;5049779;28;20124;-74
2022/09/27 01:12:23;;;;;;;23.58;22.23;;;;;;;14.10;61.93;99679.66;5033158;28;20029;-74
2022/09/27 01:14:48;;;;;;;22.95;21.75;;;;;;;14.07;61.86;99681.84;5034424;28;20035;-73
2022/09/27 01:17:47;;;;;;;24.77;22.98;;;;;;;14.06;61.55;99696.53;5034175;28;20030;-73
2022/09/27 01:20:46;;;;;;;24.40;23.10;;;;;;;14.06;61.92;99684.84;5034389;28;20041;-74
2022/09/27 01:23:30;;;;;;;24.33;22.80;;;;;;;14.05;61.77;99694.09;5033999;28;20033;-73
2022/09/27 01:26:14;;;;;;;24.40;22.02;;;;;;;14.03;61.83;99693.56;5034130;28;20061;-73
2022/09/27 01:28:58;;;;;;;24.80;23.30;;;;;;;14.02;61.90;99690.06;5034297;28;20040;-74
2022/09/27 01:31:31;;;;;;;24.17;22.63;;;;;;;14.01;61.69;99693.88;5033027;28;20038;-73
2022/09/27 01:34:04;;;;;;;23.00;21.77;;;;;;;14.01;61.72;99702.03;5033792;28;20458;-73
2022/09/27 01:36:44;;;;;;;23.30;22.00;;;;;;;14.00;61.63;99705.81;5065512;28;20049;-73
2022/09/27 01:39:45;;;;;;;24.38;23.02;;;;;;;14.00;61.81;99705.03;5033820;28;20120;-74
2022/09/27 01:42:17;;;;;;;23.08;21.80;;;;;;;13.97;61.75;99690.13;5011520;28;20042;-74
2022/09/27 01:44:45;;;;;;;23.42;22.10;;;;;;;13.99;61.58;99700.72;5030312;28;20077;-73
2022/09/27 01:47:17;;;;;;;23.02;21.85;;;;;;;13.97;61.70;99701.00;5033686;28;20090;-74
2022/09/27 01:50:07;;;;;;;23.00;21.70;;;;;;;13.97;61.77;99709.13;5034030;28;20037;-73
2022/09/27 01:53:02;;;;;;;23.48;22.25;;;;;;;13.95;61.85;99752.03;5033815;28;20116;-73
2022/09/27 01:55:31;;;;;;;22.50;21.40;;;;;;;13.95;61.50;99756.69;5032617;28;20025;-73
2022/09/27 01:58:03;;;;;;;23.05;21.85;;;;;;;13.94;61.69;99730.63;5033979;28;20047;-73
2022/09/27 02:00:28;;;;;;;23.25;22.05;;;;;;;13.93;61.64;99708.09;5033781;28;20044;-73
2022/09/27 02:03:02;;;;;;;24.30;23.00;;;;;;;13.92;61.52;99694.81;5033645;28;20420;-73
2022/09/27 02:05:37;;;;;;;23.27;21.85;;;;;;;13.92;61.71;99711.09;5032865;28;20116;-73
2022/09/27 02:08:11;;;;;;;25.77;24.33;;;;;;;13.92;61.58;99705.69;5033531;28;20030;-73
2022/09/27 02:10:42;;;;;;;24.02;22.67;;;;;;;13.91;61.67;99709.47;5033482;28;20175;-74
2022/09/27 02:13:18;;;;;;;22.80;21.40;;;;;;;13.90;61.44;99710.59;5033833;28;20112;-74
2022/09/27 02:15:55;;;;;;;23.50;22.05;;;;;;;13.90;61.55;99718.72;5033187;28;20496;-73
2022/09/27 02:18:47;;;;;;;24.15;22.73;;;;;;;13.89;61.52;99725.25;5065051;28;20032;-74
2022/09/27 02:21:15;;;;;;;23.77;22.23;;;;;;;13.89;61.44;99725.25;5021639;28;20041;-74
2022/09/27 02:23:48;;;;;;;22.25;20.95;;;;;;;13.87;61.79;99722.81;5031823;28;20142;-73
2022/09/27 02:26:23;;;;;;;24.48;22.90;;;;;;;13.85;61.61;99723.09;5033207;28;20029;-74
2022/09/27 02:29:01;;;;;;;23.65;22.45;;;;;;;13.85;61.69;99700.59;5033003;28;20034;-73
2022/09/27 02:31:26;;;;;;;24.10;22.42;;;;;;;13.83;61.72;99698.19;5033338;28;20036;-73
2022/09/27 02:33:59;;;;;;;21.67;20.58;;;;;;;13.83;61.53;99695.47;5032892;28;20025;-73
2022/09/27 02:36:25;;;;;;;24.30;23.00;;;;;;;13.82;61.40;99696.53;5033069;28;20183;-73
2022/09/27 02:38:51;;;;;;;22.92;21.38;;;;;;;13.81;61.52;99700.38;5033533;28;20443;-72
2022/09/27 02:41:20;;;;;;;26.02;24.58;;;;;;;13.82;61.40;99714.75;5033199;28;20062;-73
2022/09/27 02:43:51;;;;;;;22.17;20.98;;;;;;;13.81;61.36;99715.84;5032995;28;20033;-73
2022/09/27 02:47:04;;;;;;;24.50;23.00;;;;;;;13.79;61.48;99708.00;5033293;28;20061;-73
2022/09/27 02:49:49;;;;;;;23.40;22.10;;;;;;;13.78;61.35;99711.81;5044548;28;20047;-74
2022/09/27 02:52:28;;;;;;;23.52;22.33;;;;;;;13.77;61.33;99710.19;5033073;28;20029;-75
2022/09/27 02:55:02;;;;;;;21.52;20.42;;;;;;;13.76;61.58;99708.56;5031866;28;20088;-73
2022/09/27 02:57:45;;;;;;;24.13;22.73;;;;;;;13.76;61.69;99715.91;5033059;28;20034;-73
2022/09/27 03:00:38;;;;;;;22.73;21.50;;;;;;;13.75;61.42;99706.13;5032864;28;20043;-73
2022/09/27 03:03:18;;;;;;;22.08;20.75;;;;;;;13.73;61.66;99701.00;5032714;28;20033;-73
2022/09/27 03:05:51;;;;;;;23.48;21.85;;;;;;;13.72;61.39;99699.38;5032719;28;20117;-73
2022/09/27 03:08:17;;;;;;;22.63;21.50;;;;;;;13.71;61.46;99692.34;5032603;28;20029;-75
2022/09/27 03:10:43;;;;;;;22.70;21.40;;;;;;;13.70;61.47;99695.34;5032614;28;20163;-74
2022/09/27 03:13:08;;;;;;;23.02;21.63;;;;;;;13.70;61.57;99687.19;5032851;28;20150;-73
2022/09/27 03:15:34;;;;;;;22.17;20.88;;;;;;;13.70;61.40;99692.63;5065188;28;20064;-74
2022/09/27 03:17:59;;;;;;;23.60;22.25;;;;;;;13.68;61.45;99692.09;5034422;28;20482;-74
2022/09/27 03:20:25;;;;;;;25.92;24.08;;;;;;;13.67;61.55;99691.31;5036191;28;20452;-73
2022/09/27 03:22:50;;;;;;;22.20;20.83;;;;;;;13.67;61.78;99702.16;5051574;28;20037;-73
2022/09/27 03:25:15;;;;;;;23.25;22.13;;;;;;;13.67;61.28;99713.00;5034576;28;20450;-76
2022/09/27 03:27:42;;;;;;;22.33;21.17;;;;;;;13.66;61.22;99718.72;5036210;28;20364;-73
2022/09/27 03:30:09;;;;;;;23.30;22.10;;;;;;;13.64;61.27;99708.16;5034660;28;20033;-73
2022/09/27 03:32:35;;;;;;;24.15;22.85;;;;;;;13.63;61.38;99712.78;5035983;28;20079;-74
2022/09/27 03:35:00;;;;;;;23.70;22.30;;;;;;;13.63;61.34;99718.22;5034449;28;20057;-73
2022/09/27 03:37:28;;;;;;;24.70;23.08;;;;;;;13.61;61.41;99722.31;5034526;28;20048;-73
2022/09/27 03:39:53;;;;;;;23.75;22.55;;;;;;;13.60;61.42;99734.25;5034883;28;20339;-73
2022/09/27 03:42:19;;;;;;;23.83;22.60;;;;;;;13.61;61.26;99738.59;5035834;28;20040;-73
2022/09/27 03:44:44;;;;;;;22.90;21.80;;;;;;;13.59;61.30;99748.91;5036296;28;20381;-73
2022/09/27 03:47:10;;;;;;;22.02;20.92;;;;;;;13.59;61.57;99757.06;5035669;28;20034;-73
2022/09/27 03:49:35;;;;;;;23.65;22.35;;;;;;;13.58;61.51;99755.44;5034562;28;20117;-73
2022/09/27 03:52:01;;;;;;;23.25;22.05;;;;;;;13.59;61.57;99751.63;5036157;28;20053;-73
2022/09/27 03:54:26;;;;;;;24.00;22.25;;;;;;;13.57;61.57;99751.09;5035243;28;20029;-73
2022/09/27 03:56:51;;;;;;;23.02;21.90;;;;;;;13.57;61.45;99756.53;5035595;28;20057;-73
2022/09/27 03:59:17;;;;;;;23.35;22.15;;;;;;;13.55;61.47;99756.00;5036030;28;20045;-73
2022/09/27 04:01:44;;;;;;;24.45;23.17;;;;;;;13.55;61.26;99762.22;5035308;28;20375;-72
2022/09/27 04:04:09;;;;;;;22.70;21.60;;;;;;;13.55;61.49;99756.00;5035476;28;20474;-72
2022/09/27 04:06:34;;;;;;;23.65;22.35;;;;;;;13.55;61.25;99747.88;5034108;28;20136;-73
2022/09/27 04:09:01;;;;;;;22.83;21.63;;;;;;;13.54;61.25;99744.34;5035338;28;20033;-72
2022/09/27 04:11:26;;;;;;;24.48;23.17;;;;;;;13.55;61.34;99728.88;5034031;28;20033;-73
2022/09/27 04:13:51;;;;;;;22.02;20.73;;;;;;;13.53;61.42;99729.19;5035473;28;20048;-74
2022/09/27 04:16:17;;;;;;;22.98;21.67;;;;;;;13.53;61.32;99731.91;5034417;28;20033;-73
2022/09/27 04:18:43;;;;;;;22.00;20.88;;;;;;;13.53;61.51;99725.63;5034548;28;20128;-73
2022/09/27 04:21:08;;;;;;;22.67;21.52;;;;;;;13.52;61.27;99718.59;5035500;28;20034;-73
2022/09/27 04:23:34;;;;;;;22.92;21.70;;;;;;;13.52;61.27;99726.75;5033801;28;20075;-73
2022/09/27 04:25:59;;;;;;;23.52;22.33;;;;;;;13.49;61.38;99728.13;5035213;28;20107;-73
2022/09/27 04:28:24;;;;;;;21.92;20.70;;;;;;;13.50;61.37;99731.63;5034956;28;20036;-74
2022/09/27 04:30:50;;;;;;;23.67;22.15;;;;;;;13.48;61.20;99737.38;5034886;28;20104;-74
2022/09/27 04:33:15;;;;;;;24.48;23.20;;;;;;;13.48;61.35;99734.66;5035100;28;20036;-73
2022/09/27 04:38:26;;;;;;;24.25;22.92;;;;;;;13.46;61.20;99736.03;5035259;28;20492;-74
2022/09/27 04:40:51;;;;;;;23.33;22.13;;;;;;;13.44;61.19;99733.59;5066688;28;20124;-73
2022/09/27 04:43:16;;;;;;;23.90;22.40;;;;;;;13.44;61.18;99732.81;5033312;28;20465;-73
2022/09/27 04:45:42;;;;;;;22.73;21.40;;;;;;;13.42;61.33;99738.50;5034667;28;20033;-73
2022/09/27 04:48:08;;;;;;;23.13;21.92;;;;;;;13.42;60.94;99750.16;5033285;28;20159;-72
2022/09/27 04:50:34;;;;;;;24.33;23.02;;;;;;;13.41;61.28;99745.03;5034536;28;20044;-73
2022/09/27 04:53:00;;;;;;;22.80;21.60;;;;;;;13.41;61.31;99745.03;5034888;28;20036;-73
2022/09/27 04:55:26;;;;;;;22.83;21.63;;;;;;;13.39;61.21;99741.78;5033954;28;20067;-75
2022/09/27 04:57:52;;;;;;;21.75;20.42;;;;;;;13.38;61.26;99734.72;5035182;28;20034;-72
2022/09/27 05:00:18;;;;;;;22.38;21.17;;;;;;;13.37;61.10;99733.94;5035075;28;20036;-72
2022/09/27 05:02:44;;;;;;;21.67;20.48;;;;;;;13.37;61.28;99733.13;5035028;28;20465;-72
2022/09/27 05:05:12;;;;;;;22.10;21.00;;;;;;;13.37;61.12;99730.41;5034920;28;20434;-73
2022/09/27 05:07:38;;;;;;;23.10;21.80;;;;;;;13.36;61.34;99736.94;5034926;28;20060;-73
2022/09/27 05:10:05;;;;;;;22.77;21.58;;;;;;;13.36;61.39;99742.38;5035020;28;20105;-72
2022/09/27 05:12:30;;;;;;;24.17;22.88;;;;;;;13.35;61.18;99746.16;5034995;28;20025;-73
2022/09/27 05:14:55;;;;;;;22.02;20.92;;;;;;;13.34;61.33;99742.63;5035143;28;20376;-72
2022/09/27 05:17:22;;;;;;;21.73;20.63;;;;;;;13.33;61.20;99735.59;5034481;28;20515;-73
2022/09/27 05:19:48;;;;;;;22.63;21.52;;;;;;;13.33;61.20;99738.31;5033467;28;20489;-73
2022/09/27 05:22:14;;;;;;;22.05;20.65;;;;;;;13.31;61.28;99735.09;5034047;28;20083;-73
2022/09/27 05:24:39;;;;;;;23.23;21.92;;;;;;;13.32;61.25;99744.03;5032780;28;20030;-71
2022/09/27 05:27:07;;;;;;;22.80;21.60;;;;;;;13.30;61.38;99744.28;5033898;28;20029;-72
2022/09/27 05:29:33;;;;;;;23.10;21.80;;;;;;;13.30;61.30;99741.59;5033858;28;20040;-72
2022/09/27 05:31:59;;;;;;;21.08;19.98;;;;;;;13.29;61.24;99739.97;5033901;28;20126;-71
2022/09/27 05:34:25;;;;;;;20.98;19.77;;;;;;;13.28;61.41;99749.22;5034273;28;20072;-73
2022/09/27 05:36:50;;;;;;;22.23;20.92;;;;;;;13.28;61.18;99745.66;5034100;28;20049;-73
2022/09/27 05:39:16;;;;;;;21.95;20.77;;;;;;;13.27;61.25;99755.72;5032184;28;20128;-72
2022/09/27 05:41:45;;;;;;;24.35;23.05;;;;;;;13.26;61.13;99747.84;5033729;28;20462;-72
2022/09/27 05:44:12;;;;;;;21.55;20.45;;;;;;;13.26;61.33;99751.38;5034022;28;20035;-73
2022/09/27 05:46:38;;;;;;;23.70;22.30;;;;;;;13.24;61.13;99750.84;5034118;28;20036;-73
2022/09/27 05:49:04;;;;;;;21.50;20.40;;;;;;;13.24;61.12;99758.16;5033718;28;20042;-73
2022/09/27 05:51:29;;;;;;;22.65;21.40;;;;;;;13.24;61.27;99758.97;5033523;28;20065;-75
2022/09/27 05:53:55;;;;;;;21.75;20.35;;;;;;;13.24;61.30;99766.31;5049196;28;20064;-73
2022/09/27 05:56:20;;;;;;;22.83;21.50;;;;;;;13.23;61.05;99761.97;5033927;28;20044;-73
2022/09/27 05:58:45;;;;;;;23.27;22.02;;;;;;;13.22;60.89;99755.72;5033483;28;20112;-73
2022/09/27 06:01:11;;;;;;;22.00;20.85;;;;;;;13.21;60.89;99754.13;5033520;28;20029;-73
2022/09/27 06:03:36;;;;;;;23.17;21.67;;;;;;;13.21;61.12;99762.25;5033499;28;20060;-73
2022/09/27 06:06:06;;;;;;;21.60;20.50;;;;;;;13.21;61.35;99756.84;5033680;28;20064;-74
2022/09/27 06:08:33;;;;;;;23.88;22.67;;;;;;;13.19;61.11;99762.53;5033702;28;20112;-76
2022/09/27 06:11:11;;;;;;;22.17;21.05;;;;;;;13.19;61.21;99767.97;5033903;28;20489;-73
2022/09/27 06:13:38;;;;;;;23.70;22.45;;;;;;;13.18;61.12;99765.53;5033616;28;20071;-73
2022/09/27 06:16:04;;;;;;;21.80;20.52;;;;;;;13.17;61.25;99764.72;5033482;28;20109;-74
2022/09/27 06:18:30;;;;;;;22.15;20.95;;;;;;;13.16;60.83;99767.72;5065934;28;20131;-74
2022/09/27 06:20:58;;;;;;;22.63;21.42;;;;;;;13.16;61.28;99768.53;5065638;28;20038;-73
2022/09/27 06:23:24;;;;;;;21.33;20.20;;;;;;;13.15;61.35;99766.91;5034136;28;20121;-73
2022/09/27 06:25:51;;;;;;;22.65;21.35;;;;;;;13.16;61.12;99765.00;5032382;28;20112;-74
2022/09/27 06:28:17;;;;;;;22.10;20.98;;;;;;;13.15;61.36;99761.50;5031965;28;20108;-73
2022/09/27 06:30:47;;;;;;;23.17;21.88;;;;;;;13.15;61.17;99755.25;5031630;28;20044;-73
2022/09/27 06:33:15;;;;;;;23.33;22.02;;;;;;;13.14;61.22;99753.63;5032997;28;20053;-73
2022/09/27 06:35:44;;;;;;;24.33;22.92;;;;;;;13.13;61.20;99752.84;5032697;28;20111;-74
2022/09/27 06:38:15;;;;;;;21.88;20.73;;;;;;;13.13;61.25;99752.84;5032449;28;20037;-74
2022/09/27 06:40:46;;;;;;;24.65;22.88;;;;;;;13.13;61.17;99762.88;5033026;28;20104;-74
2022/09/27 06:43:14;;;;;;;22.63;21.38;;;;;;;13.12;61.27;99751.19;5031745;28;20075;-75
2022/09/27 06:45:39;;;;;;;25.02;23.52;;;;;;;13.12;61.16;99761.25;5032598;28;20032;-72
2022/09/27 06:48:06;;;;;;;23.55;22.27;;;;;;;13.11;61.11;99757.72;5032837;28;20026;-73
2022/09/27 06:50:36;;;;;;;24.55;23.15;;;;;;;13.10;60.82;99756.13;5032714;28;20026;-73
2022/09/27 06:53:03;;;;;;;22.98;21.75;;;;;;;13.09;61.29;99761.81;5035963;28;20124;-73
2022/09/27 06:55:29;;;;;;;24.08;22.75;;;;;;;13.09;61.19;99759.09;5036662;28;20037;-73
2022/09/27 07:00:41;;;;;;;24.33;22.98;;;;;;;13.07;61.13;99766.69;5036600;28;20481;-72
2022/09/27 07:03:10;;;;;;;23.08;21.88;;;;;;;13.06;61.07;99771.31;5068580;28;20049;-72
2022/09/27 07:05:37;;;;;;;22.95;21.65;;;;;;;13.06;60.95;99775.94;5036182;28;20107;-74
2022/09/27 07:08:03;;;;;;;23.52;22.23;;;;;;;13.05;61.03;99777.00;5035913;28;20037;-73
2022/09/27 07:10:33;;;;;;;24.20;22.90;;;;;;;13.04;61.25;99776.22;5035938;28;20033;-74
2022/09/27 07:13:06;;;;;;;22.13;20.92;;;;;;;13.04;61.49;99761.84;5036148;28;20036;-73
2022/09/27 07:15:35;;;;;;;22.70;21.40;;;;;;;13.03;61.09;99771.06;5035474;28;20392;-74
2022/09/27 07:18:01;;;;;;;24.55;23.15;;;;;;;13.01;61.09;99763.22;5036735;28;20073;-72
2022/09/27 07:20:28;;;;;;;23.42;22.23;;;;;;;13.01;61.07;99760.50;5035204;28;20460;-72
2022/09/27 07:22:54;;;;;;;25.08;23.60;;;;;;;13.02;61.41;99769.44;5036094;28;20065;-72
2022/09/27 07:25:19;;;;;;;23.13;21.75;;;;;;;13.00;61.16;99777.84;5034666;28;20127;-73
2022/09/27 07:27:45;;;;;;;23.45;22.00;;;;;;;13.02;61.14;99783.00;5035934;28;20065;-72
2022/09/27 07:30:11;;;;;;;23.60;22.10;;;;;;;13.01;61.38;99784.13;5035764;28;20029;-73
2022/09/27 07:32:36;;;;;;;23.15;21.92;;;;;;;13.01;61.14;99787.63;5035881;28;20041;-72
2022/09/27 07:35:07;;;;;;;23.33;22.02;;;;;;;13.01;61.22;99798.47;5035734;28;20056;-72
2022/09/27 07:37:34;;;;;;;23.67;22.33;;;;;;;13.01;61.26;99789.53;5036001;28;20548;-72
2022/09/27 07:40:00;;;;;;;24.52;23.02;;;;;;;12.99;61.31;99790.59;5036475;28;20039;-73
2022/09/27 07:42:27;;;;;;;22.92;21.73;;;;;;;12.99;61.46;99793.31;5034071;28;20397;-72
2022/09/27 07:44:54;;;;;;;24.83;23.33;;;;;;;12.99;61.35;99798.75;5035527;28;20034;-73
2022/09/27 07:47:20;;;;;;;24.23;22.77;;;;;;;12.99;61.22;99804.16;5036235;28;20465;-73
2022/09/27 07:49:46;;;;;;;25.98;24.40;;;;;;;12.99;61.21;99800.66;5050834;28;20029;-73
2022/09/27 07:52:11;;;;;;;22.60;21.33;;;;;;;12.99;61.09;99797.94;5034266;28;20048;-73
2022/09/27 07:54:37;;;;;;;24.20;22.83;;;;;;;12.98;61.30;99796.31;5033752;28;20112;-73
2022/09/27 07:57:02;;;;;;;24.05;22.65;;;;;;;12.97;61.34;99800.91;5033953;28;20041;-73
2022/09/27 07:59:28;;;;;;;23.85;22.45;;;;;;;12.97;61.44;99798.22;5034423;28;20038;-73
2022/09/27 08:01:54;;;;;;;24.88;23.38;;;;;;;12.97;61.22;99800.91;5034649;28;20391;-72
2022/09/27 08:04:20;;;;;;;23.88;22.48;;;;;;;12.96;61.42;99802.03;5034946;28;20037;-73
2022/09/27 08:06:45;;;;;;;24.48;22.85;;;;;;;12.95;61.21;99792.28;5034976;28;20417;-72
2022/09/27 08:09:11;;;;;;;25.73;24.02;;;;;;;12.96;61.60;99795.78;5035120;28;20385;-73
2022/09/27 08:11:36;;;;;;;26.73;25.05;;;;;;;12.95;61.37;99786.84;5033682;28;20065;-73
2022/09/27 08:14:03;;;;;;;25.85;24.25;;;;;;;12.97;61.23;99792.78;5035152;28;20072;-73
2022/09/27 08:16:29;;;;;;;25.65;24.05;;;;;;;12.95;61.32;99786.84;5066890;28;20041;-75
2022/09/27 08:18:54;;;;;;;25.98;24.33;;;;;;;12.95;61.38;99786.84;5034745;28;20041;-73
2022/09/27 08:21:19;;;;;;;25.60;23.90;;;;;;;12.95;61.53;99783.31;5034984;28;20057;-75
2022/09/27 08:23:45;;;;;;;26.35;24.33;;;;;;;12.95;61.54;99791.44;5033629;28;20033;-73
2022/09/27 08:26:10;;;;;;;23.08;21.80;;;;;;;12.95;61.78;99783.31;5033276;28;20061;-73
2022/09/27 08:28:35;;;;;;;26.80;25.08;;;;;;;12.94;61.63;99785.22;5033327;28;20037;-73
2022/09/27 08:31:04;;;;;;;24.63;23.08;;;;;;;12.94;61.57;99787.94;5034602;28;20080;-74
2022/09/27 08:33:29;;;;;;;25.10;23.50;;;;;;;12.94;61.59;99790.66;5033749;28;20478;-74
2022/09/27 08:35:54;;;;;;;25.08;23.30;;;;;;;12.93;61.56;99794.47;5032913;28;20171;-73
2022/09/27 08:38:21;;;;;;;24.60;22.98;;;;;;;12.95;61.46;99799.56;5034580;28;20045;-74
2022/09/27 08:40:56;;;;;;;26.10;24.48;;;;;;;12.93;61.58;99797.16;5033292;28;20369;-72
2022/09/27 08:43:38;;;;;;;23.92;22.52;;;;;;;12.93;61.60;99805.31;5034795;28;20604;-75
2022/09/27 08:46:26;;;;;;;26.00;24.00;;;;;;;12.93;61.60;99799.88;5034506;28;20029;-74
2022/09/27 08:49:03;;;;;;;25.15;23.38;;;;;;;12.93;62.00;99801.78;5034378;28;20509;-76
2022/09/27 08:51:31;;;;;;;25.00;23.40;;;;;;;12.92;61.82;99809.09;5033170;28;20049;-76
2022/09/27 08:54:13;;;;;;;25.00;23.42;;;;;;;12.92;61.74;99819.94;5034296;28;20032;-74
2022/09/27 08:56:38;;;;;;;26.95;25.33;;;;;;;12.92;61.79;99819.94;5033584;28;20347;-74
2022/09/27 08:59:13;;;;;;;26.85;25.08;;;;;;;12.93;61.64;99829.69;5032859;28;20044;-74
2022/09/27 09:01:40;;;;;;;26.58;24.80;;;;;;;12.94;61.82;99822.38;5033946;28;20025;-74
2022/09/27 09:04:07;;;;;;;27.73;26.02;;;;;;;12.94;61.80;99822.38;5034115;28;20061;-73
2022/09/27 09:06:41;;;;;;;25.70;23.70;;;;;;;12.94;61.73;99822.38;5033994;28;20112;-74
2022/09/27 09:09:13;;;;;;;23.35;21.92;;;;;;;12.93;62.04;99818.84;5033230;28;20064;-74
2022/09/27 09:15:12;;;;;;;26.27;24.05;;;;;;;12.94;61.94;99828.59;5011614;28;20132;-74
2022/09/27 09:18:20;;;;;;;24.02;22.20;;;;;;;12.95;61.84;99834.81;5033960;28;20363;-74
2022/09/27 09:21:33;;;;;;;26.80;24.90;;;;;;;12.95;62.16;99840.25;5034341;28;20025;-74
2022/09/27 09:24:32;;;;;;;26.58;24.52;;;;;;;12.94;61.93;99850.28;5012118;28;20141;-74
2022/09/27 09:27:15;;;;;;;22.55;21.25;;;;;;;12.93;62.10;99850.56;5011902;28;20041;-75
2022/09/27 09:29:55;;;;;;;22.42;21.13;;;;;;;12.93;61.89;99850.56;5031630;28;20053;-73
2022/09/27 09:32:38;;;;;;;23.90;22.35;;;;;;;12.93;62.03;99854.09;5033642;28;20029;-73
2022/09/27 09:35:14;;;;;;;24.50;22.90;;;;;;;12.94;61.78;99860.31;5031621;28;20050;-74
2022/09/27 09:37:44;;;;;;;23.95;22.55;;;;;;;12.95;61.84;99853.78;5034208;28;20041;-73
2022/09/27 09:40:25;;;;;;;21.20;20.10;;;;;;;12.95;61.75;99854.63;5033085;28;20546;-73
2022/09/27 09:43:04;;;;;;;23.00;21.40;;;;;;;12.95;62.06;99865.47;5033647;28;20429;-73
2022/09/27 09:45:37;;;;;;;24.42;23.02;;;;;;;12.95;61.91;99865.47;5033285;28;20409;-77
2022/09/27 09:48:10;;;;;;;23.23;21.92;;;;;;;12.96;61.88;99863.56;5066227;28;20029;-74
2022/09/27 09:50:48;;;;;;;22.85;21.55;;;;;;;12.97;61.82;99865.16;5033194;28;20052;-75
2022/09/27 09:53:20;;;;;;;22.58;20.95;;;;;;;12.98;61.96;99866.81;5033340;28;20116;-74
2022/09/27 09:56:09;;;;;;;21.65;20.45;;;;;;;12.98;61.93;99872.22;5033198;28;20124;-75
2022/09/27 09:58:48;;;;;;;;;;;;;;;12.98;61.97;99866.81;5034012;28;20048;-74
2022/09/27 10:01:19;;;;;;;;;;;;;;;12.97;61.62;99859.75;5033867;28;19909;-74
2022/09/27 10:03:45;;;;;;;22.48;21.17;;;;;;;12.97;61.53;99857.03;5033117;28;19917;-75
2022/09/27 10:06:11;;;;;;;21.98;20.67;;;;;;;12.95;61.77;99854.63;5032933;28;20094;-75
2022/09/27 10:08:37;;;;;;;22.63;21.23;;;;;;;12.96;61.85;99861.66;5031624;28;20367;-76
2022/09/27 10:11:02;;;;;;;22.23;20.92;;;;;;;12.96;62.10;99855.44;5031556;28;20091;-73
2022/09/27 10:13:33;;;;;;;23.58;22.17;;;;;;;12.97;61.94;99857.03;5031803;28;20026;-73
2022/09/27 10:16:04;;;;;;;24.65;23.15;;;;;;;12.97;61.73;99860.56;5033085;28;20486;-77
2022/09/27 10:18:30;;;;;;;21.48;20.27;;;;;;;12.98;61.84;99858.69;5032956;28;20385;-74
2022/09/27 10:21:01;;;;;;;21.90;20.70;;;;;;;12.98;62.06;99869.53;5032718;28;20408;-74
2022/09/27 10:23:27;;;;;;;22.75;21.20;;;;;;;12.99;61.81;99863.81;5032830;28;20558;-74
2022/09/27 10:26:00;;;;;;;22.10;20.92;;;;;;;12.98;61.99;99862.19;5032502;28;20034;-74
2022/09/27 10:28:36;;;;;;;21.90;20.60;;;;;;;12.98;62.12;99859.47;5033056;28;20033;-73
2022/09/27 10:31:09;;;;;;;22.80;21.50;;;;;;;12.99;61.99;99855.66;5031344;28;20040;-74
2022/09/27 10:33:38;;;;;;;22.65;21.33;;;;;;;13.01;62.18;99860.00;5032749;28;20043;-74
2022/09/27 10:36:22;;;;;;;22.65;21.25;;;;;;;13.01;62.29;99857.31;5033131;28;20080;-74
2022/09/27 10:38:53;;;;;;;22.67;21.48;;;;;;;13.00;62.09;99856.47;5032937;28;20037;-74
2022/09/27 10:41:32;;;;;;;20.70;19.60;;;;;;;13.00;62.20;99848.34;5032626;28;20478;-74
2022/09/27 10:44:25;;;;;;;21.38;20.17;;;;;;;13.01;62.18;99854.59;5031034;28;20029;-74
2022/09/27 10:46:53;;;;;;;22.83;21.33;;;;;;;13.01;61.88;99841.84;5032848;28;20022;-74
2022/09/27 10:49:25;;;;;;;20.38;18.92;;;;;;;13.01;62.08;99846.47;5032652;28;20481;-73
2022/09/27 10:51:59;;;;;;;22.02;20.50;;;;;;;13.01;62.27;99836.41;5032710;28;20029;-74
2022/09/27 10:54:31;;;;;;;22.35;21.08;;;;;;;13.02;61.88;99826.38;5032621;28;20037;-74
2022/09/27 10:57:05;;;;;;;23.13;21.83;;;;;;;13.02;62.15;99829.09;5032673;28;20033;-75
2022/09/27 10:59:35;;;;;;;21.35;20.20;;;;;;;13.02;62.19;99815.53;5032759;28;20128;-75
2022/09/27 11:02:03;;;;;;;21.90;20.77;;;;;;;13.02;62.16;99824.47;5033303;28;20219;-75
2022/09/27 11:04:37;;;;;;;21.70;20.55;;;;;;;13.03;62.24;99819.84;5032781;28;20033;-76
2022/09/27 11:07:16;;;;;;;21.40;20.30;;;;;;;13.03;62.13;99817.97;5032572;28;20140;-75
2022/09/27 11:10:07;;;;;;;;;;;;;;;13.03;62.40;99815.28;5033473;28;20030;-75
2022/09/27 11:12:34;;;;;;;22.05;20.80;;;;;;;13.02;62.13;99810.91;5024260;28;20360;-75
2022/09/27 11:15:08;;;;;;;23.63;22.33;;;;;;;13.01;62.11;99820.16;5048657;28;20064;-75
2022/09/27 11:17:41;;;;;;;22.60;21.30;;;;;;;13.02;62.15;99819.06;5064953;28;20510;-75
2022/09/27 11:20:29;;;;;;;23.95;22.52;;;;;;;13.03;62.29;99814.44;5032536;28;20030;-75
2022/09/27 11:23:06;;;;;;;23.27;21.98;;;;;;;13.02;62.31;99819.06;5032848;28;20079;-75
2022/09/27 11:25:38;;;;;;;21.45;20.23;;;;;;;13.03;62.45;99812.56;5031083;28;20103;-75
2022/09/27 11:28:15;;;;;;;23.02;21.40;;;;;;;13.03;62.67;99815.28;5032478;28;20431;-76
2022/09/27 11:30:53;;;;;;;23.10;21.50;;;;;;;13.04;61.93;99813.38;5030987;28;20037;-75
2022/09/27 11:33:18;;;;;;;23.70;22.25;;;;;;;13.04;62.15;99816.88;5032280;28;20080;-75
2022/09/27 11:36:19;;;;;;;22.85;21.40;;;;;;;13.06;62.57;99816.59;5030327;28;20053;-76
2022/09/27 11:39:03;;;;;;;22.27;20.98;;;;;;;13.06;62.43;99817.41;5033647;28;20370;-75
2022/09/27 11:41:34;;;;;;;21.45;20.15;;;;;;;13.07;62.54;99816.31;5035979;28;20036;-75